sensor_id;sensor_type;location;lat;lon;timestamp;pressure;altitude;pressure_sealevel;temperature
32039;BMP280;18549;42.286;22.688;2023-02-01T00:01:45;95842.22;;;5.65
32039;BMP280;18549;42.286;22.688;2023-02-01T00:04:13;95848.44;;;5.54
32039;BMP280;18549;42.286;22.688;2023-02-01T00:06:40;95844.25;;;5.56
32039;BMP280;18549;42.286;22.688;2023-02-01T00:09:06;95836.09;;;5.56
32039;BMP280;18549;42.286;22.688;2023-02-01T00:11:33;95837.03;;;5.53
32039;BMP280;18549;42.286;22.688;2023-02-01T00:14:00;95823.34;;;5.66
32039;BMP280;18549;42.286;22.688;2023-02-01T00:16:29;95839.44;;;5.74
32039;BMP280;18549;42.286;22.688;2023-02-01T00:18:58;95826.75;;;5.83
32039;BMP280;18549;42.286;22.688;2023-02-01T00:21:27;95832.13;;;5.91
32039;BMP280;18549;42.286;22.688;2023-02-01T00:23:54;95834.31;;;5.98
32039;BMP280;18549;42.286;22.688;2023-02-01T00:26:25;95820.94;;;6.04
32039;BMP280;18549;42.286;22.688;2023-02-01T00:28:54;95825.91;;;6.02
32039;BMP280;18549;42.286;22.688;2023-02-01T00:31:20;95815.94;;;6.05
32039;BMP280;18549;42.286;22.688;2023-02-01T00:33:48;95813.41;;;6.07
32039;BMP280;18549;42.286;22.688;2023-02-01T00:36:15;95812.47;;;6.09
32039;BMP280;18549;42.286;22.688;2023-02-01T00:38:43;95814.69;;;6.15
32039;BMP280;18549;42.286;22.688;2023-02-01T00:41:13;95811.28;;;6.18
32039;BMP280;18549;42.286;22.688;2023-02-01T00:43:40;95813.81;;;6.16
32039;BMP280;18549;42.286;22.688;2023-02-01T00:46:07;95811.28;;;6.18
32039;BMP280;18549;42.286;22.688;2023-02-01T00:48:34;95804.69;;;6.18
32039;BMP280;18549;42.286;22.688;2023-02-01T00:51:01;95792.41;;;6.18
32039;BMP280;18549;42.286;22.688;2023-02-01T00:53:29;95801.41;;;6.19
32039;BMP280;18549;42.286;22.688;2023-02-01T00:55:57;95803.72;;;6.22
32039;BMP280;18549;42.286;22.688;2023-02-01T00:58:24;95802.53;;;6.12
32039;BMP280;18549;42.286;22.688;2023-02-01T01:01:01;95803.38;;;6.11
32039;BMP280;18549;42.286;22.688;2023-02-01T01:03:27;95810.88;;;6.08
32039;BMP280;18549;42.286;22.688;2023-02-01T01:05:59;95813.22;;;6.11
32039;BMP280;18549;42.286;22.688;2023-02-01T01:08:29;95806.03;;;6.07
32039;BMP280;18549;42.286;22.688;2023-02-01T01:10:56;95806.22;;;6.02
32039;BMP280;18549;42.286;22.688;2023-02-01T01:13:24;95802.91;;;6.03
32039;BMP280;18549;42.286;22.688;2023-02-01T01:15:51;95798.25;;;5.97
32039;BMP280;18549;42.286;22.688;2023-02-01T01:18:18;95801.97;;;5.88
32039;BMP280;18549;42.286;22.688;2023-02-01T01:20:44;95788.72;;;5.72
32039;BMP280;18549;42.286;22.688;2023-02-01T01:23:11;95793.44;;;5.76
32039;BMP280;18549;42.286;22.688;2023-02-01T01:25:38;95789.84;;;5.83
32039;BMP280;18549;42.286;22.688;2023-02-01T01:28:06;95790.53;;;5.87
32039;BMP280;18549;42.286;22.688;2023-02-01T01:30:34;95792.06;;;5.89
32039;BMP280;18549;42.286;22.688;2023-02-01T01:33:01;95791.88;;;5.93
32039;BMP280;18549;42.286;22.688;2023-02-01T01:35:29;95794.44;;;5.91
32039;BMP280;18549;42.286;22.688;2023-02-01T01:37:56;95787.06;;;5.91
32039;BMP280;18549;42.286;22.688;2023-02-01T01:40:24;95793.59;;;5.92
32039;BMP280;18549;42.286;22.688;2023-02-01T01:42:50;95805.81;;;5.93
32039;BMP280;18549;42.286;22.688;2023-02-01T01:45:23;95804.22;;;5.92
32039;BMP280;18549;42.286;22.688;2023-02-01T01:47:54;95799.44;;;5.89
32039;BMP280;18549;42.286;22.688;2023-02-01T01:50:26;95795.97;;;5.93
32039;BMP280;18549;42.286;22.688;2023-02-01T01:52:55;95792.66;;;5.94
32039;BMP280;18549;42.286;22.688;2023-02-01T01:55:23;95795.91;;;5.94
32039;BMP280;18549;42.286;22.688;2023-02-01T01:57:55;95796.66;;;5.96
32039;BMP280;18549;42.286;22.688;2023-02-01T02:00:24;95795.19;;;5.92
32039;BMP280;18549;42.286;22.688;2023-02-01T02:02:58;95791.88;;;5.93
32039;BMP280;18549;42.286;22.688;2023-02-01T02:05:29;95802.50;;;5.94
32039;BMP280;18549;42.286;22.688;2023-02-01T02:07:58;95795.03;;;5.95
32039;BMP280;18549;42.286;22.688;2023-02-01T02:10:27;95791.13;;;5.92
32039;BMP280;18549;42.286;22.688;2023-02-01T02:13:17;95805.16;;;5.90
32039;BMP280;18549;42.286;22.688;2023-02-01T02:15:52;95806.75;;;5.91
32039;BMP280;18549;42.286;22.688;2023-02-01T02:18:28;95798.56;;;5.90
32039;BMP280;18549;42.286;22.688;2023-02-01T02:21:17;95797.78;;;5.90
32039;BMP280;18549;42.286;22.688;2023-02-01T02:27:18;95799.50;;;5.68
32039;BMP280;18549;42.286;22.688;2023-02-01T02:30:23;95783.91;;;5.69
32039;BMP280;18549;42.286;22.688;2023-02-01T02:33:19;95787.94;;;5.70
32039;BMP280;18549;42.286;22.688;2023-02-01T02:35:55;95800.31;;;5.68
32039;BMP280;18549;42.286;22.688;2023-02-01T02:38:30;95793.97;;;5.63
32039;BMP280;18549;42.286;22.688;2023-02-01T02:41:06;95793.91;;;5.64
32039;BMP280;18549;42.286;22.688;2023-02-01T02:43:41;95789.00;;;5.64
32039;BMP280;18549;42.286;22.688;2023-02-01T02:46:33;95777.50;;;5.65
32039;BMP280;18549;42.286;22.688;2023-02-01T02:49:25;95794.56;;;5.68
32039;BMP280;18549;42.286;22.688;2023-02-01T02:52:02;95789.56;;;5.71
32039;BMP280;18549;42.286;22.688;2023-02-01T02:54:46;95793.91;;;5.64
32039;BMP280;18549;42.286;22.688;2023-02-01T02:57:19;95796.28;;;5.66
32039;BMP280;18549;42.286;22.688;2023-02-01T03:00:07;95806.12;;;5.66
32039;BMP280;18549;42.286;22.688;2023-02-01T03:02:53;95810.16;;;5.68
32039;BMP280;18549;42.286;22.688;2023-02-01T03:05:41;95815.91;;;5.67
32039;BMP280;18549;42.286;22.688;2023-02-01T03:08:13;95816.09;;;5.63
32039;BMP280;18549;42.286;22.688;2023-02-01T03:10:53;95824.22;;;5.65
32039;BMP280;18549;42.286;22.688;2023-02-01T03:13:31;95828.22;;;5.67
32039;BMP280;18549;42.286;22.688;2023-02-01T03:16:03;95838.00;;;5.69
32039;BMP280;18549;42.286;22.688;2023-02-01T03:18:35;95835.44;;;5.72
32039;BMP280;18549;42.286;22.688;2023-02-01T03:21:06;95835.44;;;5.72
32039;BMP280;18549;42.286;22.688;2023-02-01T03:23:36;95848.47;;;5.74
32039;BMP280;18549;42.286;22.688;2023-02-01T03:26:05;95854.19;;;5.74
32039;BMP280;18549;42.286;22.688;2023-02-01T03:28:34;95858.66;;;5.65
32039;BMP280;18549;42.286;22.688;2023-02-01T03:31:01;95861.06;;;5.66
32039;BMP280;18549;42.286;22.688;2023-02-01T03:33:31;95856.94;;;5.67
32039;BMP280;18549;42.286;22.688;2023-02-01T03:36:09;95860.97;;;5.68
32039;BMP280;18549;42.286;22.688;2023-02-01T03:38:39;95849.22;;;5.76
32039;BMP280;18549;42.286;22.688;2023-02-01T03:41:17;95848.00;;;5.84
32039;BMP280;18549;42.286;22.688;2023-02-01T03:43:52;95840.53;;;5.87
32039;BMP280;18549;42.286;22.688;2023-02-01T03:46:25;95833.81;;;5.91
32039;BMP280;18549;42.286;22.688;2023-02-01T03:48:54;95824.69;;;5.92
32039;BMP280;18549;42.286;22.688;2023-02-01T03:51:23;95826.31;;;5.93
32039;BMP280;18549;42.286;22.688;2023-02-01T03:53:52;95824.56;;;5.95
32039;BMP280;18549;42.286;22.688;2023-02-01T03:56:21;95817.91;;;5.97
32039;BMP280;18549;42.286;22.688;2023-02-01T03:58:48;95817.31;;;5.92
32039;BMP280;18549;42.286;22.688;2023-02-01T04:01:26;95817.47;;;5.90
32039;BMP280;18549;42.286;22.688;2023-02-01T04:03:52;95800.97;;;5.92
32039;BMP280;18549;42.286;22.688;2023-02-01T04:06:19;95805.75;;;5.94
32039;BMP280;18549;42.286;22.688;2023-02-01T04:08:48;95805.62;;;5.97
32039;BMP280;18549;42.286;22.688;2023-02-01T04:11:14;95809.69;;;5.98
32039;BMP280;18549;42.286;22.688;2023-02-01T04:13:41;95807.88;;;6.02
32039;BMP280;18549;42.286;22.688;2023-02-01T04:16:08;95812.81;;;6.02
32039;BMP280;18549;42.286;22.688;2023-02-01T04:18:35;95802.91;;;6.03
32039;BMP280;18549;42.286;22.688;2023-02-01T04:21:03;95806.09;;;6.05
32039;BMP280;18549;42.286;22.688;2023-02-01T04:23:30;95813.41;;;6.07
32039;BMP280;18549;42.286;22.688;2023-02-01T04:26:03;95816.75;;;6.06
32039;BMP280;18549;42.286;22.688;2023-02-01T04:28:31;95819.16;;;6.07
32039;BMP280;18549;42.286;22.688;2023-02-01T04:30:58;95819.06;;;6.09
32039;BMP280;18549;42.286;22.688;2023-02-01T04:33:24;95811.63;;;6.10
32039;BMP280;18549;42.286;22.688;2023-02-01T04:35:51;95817.41;;;6.09
32039;BMP280;18549;42.286;22.688;2023-02-01T04:38:18;95821.47;;;6.10
32039;BMP280;18549;42.286;22.688;2023-02-01T04:40:47;95818.22;;;6.10
32039;BMP280;18549;42.286;22.688;2023-02-01T04:43:15;95814.09;;;6.10
32039;BMP280;18549;42.286;22.688;2023-02-01T04:45:47;95817.41;;;6.09
32039;BMP280;18549;42.286;22.688;2023-02-01T04:48:14;95824.87;;;6.08
32039;BMP280;18549;42.286;22.688;2023-02-01T04:50:41;95833.03;;;6.08
32039;BMP280;18549;42.286;22.688;2023-02-01T04:53:08;95825.91;;;6.02
32039;BMP280;18549;42.286;22.688;2023-02-01T04:55:34;95844.38;;;5.92
32039;BMP280;18549;42.286;22.688;2023-02-01T04:58:01;95837.28;;;5.87
32039;BMP280;18549;42.286;22.688;2023-02-01T05:00:29;95836.59;;;5.83
32039;BMP280;18549;42.286;22.688;2023-02-01T05:02:56;95839.06;;;5.83
32039;BMP280;18549;42.286;22.688;2023-02-01T05:05:23;95845.56;;;5.84
32039;BMP280;18549;42.286;22.688;2023-02-01T05:07:50;95849.06;;;5.79
32039;BMP280;18549;42.286;22.688;2023-02-01T05:10:17;95846.75;;;5.76
32039;BMP280;18549;42.286;22.688;2023-02-01T05:12:43;95856.59;;;5.76
32039;BMP280;18549;42.286;22.688;2023-02-01T05:15:28;95858.19;;;5.77
32039;BMP280;18549;42.286;22.688;2023-02-01T05:17:56;95858.31;;;5.74
32039;BMP280;18549;42.286;22.688;2023-02-01T05:20:23;95860.81;;;5.72
32039;BMP280;18549;42.286;22.688;2023-02-01T05:22:50;95868.25;;;5.71
32039;BMP280;18549;42.286;22.688;2023-02-01T05:25:17;95877.34;;;5.69
32039;BMP280;18549;42.286;22.688;2023-02-01T05:27:44;95888.94;;;5.65
32039;BMP280;18549;42.286;22.688;2023-02-01T05:30:12;95888.16;;;5.65
32039;BMP280;18549;42.286;22.688;2023-02-01T05:32:38;95875.81;;;5.66
32039;BMP280;18549;42.286;22.688;2023-02-01T05:35:08;95883.25;;;5.65
32039;BMP280;18549;42.286;22.688;2023-02-01T05:37:34;95883.25;;;5.65
32039;BMP280;18549;42.286;22.688;2023-02-01T05:40:01;95891.50;;;5.64
32039;BMP280;18549;42.286;22.688;2023-02-01T05:42:30;95893.94;;;5.64
32039;BMP280;18549;42.286;22.688;2023-02-01T05:44:57;95885.56;;;5.68
32039;BMP280;18549;42.286;22.688;2023-02-01T05:47:24;95885.31;;;5.54
32039;BMP280;18549;42.286;22.688;2023-02-01T05:49:51;95877.91;;;5.56
32039;BMP280;18549;42.286;22.688;2023-02-01T05:52:19;95876.34;;;5.53
32039;BMP280;18549;42.286;22.688;2023-02-01T05:54:46;95890.22;;;5.54
32039;BMP280;18549;42.286;22.688;2023-02-01T05:57:13;95903.28;;;5.56
32039;BMP280;18549;42.286;22.688;2023-02-01T05:59:40;95903.28;;;5.56
32039;BMP280;18549;42.286;22.688;2023-02-01T06:02:10;95903.41;;;5.53
32039;BMP280;18549;42.286;22.688;2023-02-01T06:04:37;95906.59;;;5.55
32039;BMP280;18549;42.286;22.688;2023-02-01T06:07:03;95901.75;;;5.54
32039;BMP280;18549;42.286;22.688;2023-02-01T06:09:32;95898.47;;;5.53
32039;BMP280;18549;42.286;22.688;2023-02-01T06:11:59;95911.88;;;5.46
32039;BMP280;18549;42.286;22.688;2023-02-01T06:14:26;95902.97;;;5.44
32039;BMP280;18549;42.286;22.688;2023-02-01T06:16:53;95910.25;;;5.45
32039;BMP280;18549;42.286;22.688;2023-02-01T06:19:20;95906.97;;;5.46
32039;BMP280;18549;42.286;22.688;2023-02-01T06:21:47;95901.91;;;5.49
32039;BMP280;18549;42.286;22.688;2023-02-01T06:24:14;95910.38;;;5.42
32039;BMP280;18549;42.286;22.688;2023-02-01T06:26:42;95900.44;;;5.45
32039;BMP280;18549;42.286;22.688;2023-02-01T06:29:10;95894.72;;;5.45
32039;BMP280;18549;42.286;22.688;2023-02-01T06:31:37;95893.06;;;5.45
32039;BMP280;18549;42.286;22.688;2023-02-01T06:34:03;95901.13;;;5.49
32039;BMP280;18549;42.286;22.688;2023-02-01T06:36:33;95898.63;;;5.50
32039;BMP280;18549;42.286;22.688;2023-02-01T06:39:00;95898.47;;;5.53
32039;BMP280;18549;42.286;22.688;2023-02-01T06:41:26;95905.81;;;5.55
32039;BMP280;18549;42.286;22.688;2023-02-01T06:43:55;95904.06;;;5.57
32039;BMP280;18549;42.286;22.688;2023-02-01T06:46:22;95898.34;;;5.56
32039;BMP280;18549;42.286;22.688;2023-02-01T06:48:48;95899.87;;;5.58
32039;BMP280;18549;42.286;22.688;2023-02-01T06:51:19;95900.03;;;5.56
32039;BMP280;18549;42.286;22.688;2023-02-01T06:53:47;95891.41;;;5.46
32039;BMP280;18549;42.286;22.688;2023-02-01T06:56:13;95905.81;;;5.33
32039;BMP280;18549;42.286;22.688;2023-02-01T06:58:40;95913.44;;;5.27
32039;BMP280;18549;42.286;22.688;2023-02-01T07:01:09;95921.16;;;5.19
32039;BMP280;18549;42.286;22.688;2023-02-01T07:03:36;95917.19;;;5.16
32039;BMP280;18549;42.286;22.688;2023-02-01T07:06:04;95922.75;;;5.20
32039;BMP280;18549;42.286;22.688;2023-02-01T07:08:33;95928.41;;;5.22
32039;BMP280;18549;42.286;22.688;2023-02-01T07:11:02;95942.50;;;5.18
32039;BMP280;18549;42.286;22.688;2023-02-01T07:13:28;95944.03;;;5.21
32039;BMP280;18549;42.286;22.688;2023-02-01T07:15:58;95949.56;;;5.25
32039;BMP280;18549;42.286;22.688;2023-02-01T07:18:26;95945.28;;;5.30
32039;BMP280;18549;42.286;22.688;2023-02-01T07:20:53;95960.97;;;5.26
32039;BMP280;18549;42.286;22.688;2023-02-01T07:23:20;95966.59;;;5.30
32039;BMP280;18549;42.286;22.688;2023-02-01T07:25:47;95967.41;;;5.30
32039;BMP280;18549;42.286;22.688;2023-02-01T07:28:14;95965.81;;;5.29
32039;BMP280;18549;42.286;22.688;2023-02-01T07:30:42;95967.63;;;5.24
32039;BMP280;18549;42.286;22.688;2023-02-01T07:33:08;95971.44;;;5.31
32039;BMP280;18549;42.286;22.688;2023-02-01T07:35:36;95973.06;;;5.32
32039;BMP280;18549;42.286;22.688;2023-02-01T07:38:03;95982.09;;;5.32
32039;BMP280;18549;42.286;22.688;2023-02-01T07:40:30;95979.50;;;5.35
32039;BMP280;18549;42.286;22.688;2023-02-01T07:42:57;95985.84;;;5.40
32039;BMP280;18549;42.286;22.688;2023-02-01T07:45:25;95986.53;;;5.44
32039;BMP280;18549;42.286;22.688;2023-02-01T07:47:52;95983.97;;;5.47
32039;BMP280;18549;42.286;22.688;2023-02-01T07:50:19;95989.63;;;5.49
32039;BMP280;18549;42.286;22.688;2023-02-01T07:52:47;95992.72;;;5.54
32039;BMP280;18549;42.286;22.688;2023-02-01T07:55:15;95978.53;;;5.60
32039;BMP280;18549;42.286;22.688;2023-02-01T07:57:42;95981.81;;;5.59
32039;BMP280;18549;42.286;22.688;2023-02-01T08:00:10;95987.41;;;5.64
32039;BMP280;18549;42.286;22.688;2023-02-01T08:02:55;95984.00;;;5.66
32039;BMP280;18549;42.286;22.688;2023-02-01T08:05:23;95979.38;;;5.59
32039;BMP280;18549;42.286;22.688;2023-02-01T08:07:51;95982.66;;;5.59
32039;BMP280;18549;42.286;22.688;2023-02-01T08:10:19;95990.03;;;5.59
32039;BMP280;18549;42.286;22.688;2023-02-01T08:12:46;95996.56;;;5.59
32039;BMP280;18549;42.286;22.688;2023-02-01T08:15:14;95998.66;;;5.48
32039;BMP280;18549;42.286;22.688;2023-02-01T08:17:46;96003.34;;;5.54
32039;BMP280;18549;42.286;22.688;2023-02-01T08:20:13;95999.03;;;5.59
32039;BMP280;18549;42.286;22.688;2023-02-01T08:22:40;96006.19;;;5.65
32039;BMP280;18549;42.286;22.688;2023-02-01T08:25:09;96001.16;;;5.68
32039;BMP280;18549;42.286;22.688;2023-02-01T08:27:37;95989.50;;;5.52
32039;BMP280;18549;42.286;22.688;2023-02-01T08:30:05;95987.13;;;5.50
32039;BMP280;18549;42.286;22.688;2023-02-01T08:32:33;95998.53;;;5.51
32039;BMP280;18549;42.286;22.688;2023-02-01T08:35:00;95991.22;;;5.50
32039;BMP280;18549;42.286;22.688;2023-02-01T08:37:27;96003.47;;;5.51
32039;BMP280;18549;42.286;22.688;2023-02-01T08:39:54;96004.25;;;5.52
32039;BMP280;18549;42.286;22.688;2023-02-01T08:42:25;96004.03;;;5.57
32039;BMP280;18549;42.286;22.688;2023-02-01T08:45:10;96008.16;;;5.57
32039;BMP280;18549;42.286;22.688;2023-02-01T08:47:37;96001.75;;;5.53
32039;BMP280;18549;42.286;22.688;2023-02-01T08:50:04;96008.38;;;5.51
32039;BMP280;18549;42.286;22.688;2023-02-01T08:52:31;96004.50;;;5.46
32039;BMP280;18549;42.286;22.688;2023-02-01T08:54:58;96008.97;;;5.36
32039;BMP280;18549;42.286;22.688;2023-02-01T08:57:26;96010.44;;;5.40
32039;BMP280;18549;42.286;22.688;2023-02-01T08:59:52;96006.09;;;5.47
32039;BMP280;18549;42.286;22.688;2023-02-01T09:02:19;96009.13;;;5.53
32039;BMP280;18549;42.286;22.688;2023-02-01T09:04:46;96006.31;;;5.41
32039;BMP280;18549;42.286;22.688;2023-02-01T09:07:13;96013.59;;;5.44
32039;BMP280;18549;42.286;22.688;2023-02-01T09:09:40;96013.41;;;5.48
32039;BMP280;18549;42.286;22.688;2023-02-01T09:12:07;96010.09;;;5.49
32039;BMP280;18549;42.286;22.688;2023-02-01T09:14:36;96004.38;;;5.49
32039;BMP280;18549;42.286;22.688;2023-02-01T09:17:02;96006.03;;;5.48
32039;BMP280;18549;42.286;22.688;2023-02-01T09:19:30;96007.34;;;5.57
32039;BMP280;18549;42.286;22.688;2023-02-01T09:21:57;96003.97;;;5.59
32039;BMP280;18549;42.286;22.688;2023-02-01T09:24:24;96000.41;;;5.66
32039;BMP280;18549;42.286;22.688;2023-02-01T09:26:51;95991.97;;;5.73
32039;BMP280;18549;42.286;22.688;2023-02-01T09:29:18;95989.16;;;5.82
32039;BMP280;18549;42.286;22.688;2023-02-01T09:31:46;95989.59;;;5.91
32039;BMP280;18549;42.286;22.688;2023-02-01T09:34:13;95975.53;;;5.94
32039;BMP280;18549;42.286;22.688;2023-02-01T09:36:40;95985.19;;;5.99
32039;BMP280;18549;42.286;22.688;2023-02-01T09:39:06;95974.34;;;6.03
32039;BMP280;18549;42.286;22.688;2023-02-01T09:41:41;95975.09;;;6.05
32039;BMP280;18549;42.286;22.688;2023-02-01T09:44:21;95967.72;;;6.05
32039;BMP280;18549;42.286;22.688;2023-02-01T09:46:55;95960.34;;;6.05
32039;BMP280;18549;42.286;22.688;2023-02-01T09:49:26;95962.66;;;6.08
32039;BMP280;18549;42.286;22.688;2023-02-01T09:51:54;95952.25;;;6.21
32039;BMP280;18549;42.286;22.688;2023-02-01T09:54:24;95947.19;;;6.24
32039;BMP280;18549;42.286;22.688;2023-02-01T09:56:53;95950.28;;;6.29
32039;BMP280;18549;42.286;22.688;2023-02-01T09:59:28;95952.50;;;6.35
32039;BMP280;18549;42.286;22.688;2023-02-01T10:01:57;95956.59;;;6.34
32039;BMP280;18549;42.286;22.688;2023-02-01T10:04:25;95955.38;;;6.24
32039;BMP280;18549;42.286;22.688;2023-02-01T10:07:02;95954.06;;;6.36
32039;BMP280;18549;42.286;22.688;2023-02-01T10:09:47;95959.00;;;6.36
32039;BMP280;18549;42.286;22.688;2023-02-01T10:12:35;95956.41;;;6.39
32039;BMP280;18549;42.286;22.688;2023-02-01T10:15:15;95961.97;;;6.44
32039;BMP280;18549;42.286;22.688;2023-02-01T10:17:57;95956.47;;;6.37
32039;BMP280;18549;42.286;22.688;2023-02-01T10:20:30;95948.31;;;6.37
32039;BMP280;18549;42.286;22.688;2023-02-01T10:23:11;95955.69;;;6.37
32039;BMP280;18549;42.286;22.688;2023-02-01T10:25:49;95957.88;;;6.43
32039;BMP280;18549;42.286;22.688;2023-02-01T10:28:20;95943.78;;;6.46
32039;BMP280;18549;42.286;22.688;2023-02-01T10:30:49;95956.63;;;6.53
32039;BMP280;18549;42.286;22.688;2023-02-01T10:33:24;95950.84;;;6.54
32039;BMP280;18549;42.286;22.688;2023-02-01T10:35:55;95933.47;;;6.57
32039;BMP280;18549;42.286;22.688;2023-02-01T10:38:27;95931.19;;;6.52
32039;BMP280;18549;42.286;22.688;2023-02-01T10:40:59;95917.50;;;6.47
32039;BMP280;18549;42.286;22.688;2023-02-01T10:43:28;95917.09;;;6.56
32039;BMP280;18549;42.286;22.688;2023-02-01T10:45:56;95909.31;;;6.83
32039;BMP280;18549;42.286;22.688;2023-02-01T10:48:26;95898.00;;;7.14
32039;BMP280;18549;42.286;22.688;2023-02-01T10:50:58;95888.09;;;7.32
32039;BMP280;18549;42.286;22.688;2023-02-01T10:53:31;95883.41;;;7.44
32039;BMP280;18549;42.286;22.688;2023-02-01T10:56:06;95870.63;;;7.70
32039;BMP280;18549;42.286;22.688;2023-02-01T10:58:36;95879.75;;;8.01
32039;BMP280;18549;42.286;22.688;2023-02-01T11:01:16;95862.37;;;8.20
32039;BMP280;18549;42.286;22.688;2023-02-01T11:03:52;95861.28;;;8.40
32039;BMP280;18549;42.286;22.688;2023-02-01T11:06:27;95863.53;;;8.75
32039;BMP280;18549;42.286;22.688;2023-02-01T11:08:57;95857.38;;;8.97
32039;BMP280;18549;42.286;22.688;2023-02-01T11:11:25;95852.56;;;9.25
32039;BMP280;18549;42.286;22.688;2023-02-01T11:13:54;95847.37;;;9.29
32039;BMP280;18549;42.286;22.688;2023-02-01T11:16:29;95852.72;;;9.51
32039;BMP280;18549;42.286;22.688;2023-02-01T11:18:58;95859.63;;;9.60
32039;BMP280;18549;42.286;22.688;2023-02-01T11:21:27;95846.75;;;9.40
32039;BMP280;18549;42.286;22.688;2023-02-01T11:23:55;95856.78;;;9.23
32039;BMP280;18549;42.286;22.688;2023-02-01T11:26:27;95864.81;;;8.97
32039;BMP280;18549;42.286;22.688;2023-02-01T11:28:59;95854.72;;;9.16
32039;BMP280;18549;42.286;22.688;2023-02-01T11:31:29;95853.13;;;9.15
32039;BMP280;18549;42.286;22.688;2023-02-01T11:34:04;95847.84;;;9.21
32039;BMP280;18549;42.286;22.688;2023-02-01T11:36:33;95845.47;;;9.19
32039;BMP280;18549;42.286;22.688;2023-02-01T11:39:19;95860.59;;;9.28
32039;BMP280;18549;42.286;22.688;2023-02-01T11:41:58;95854.72;;;9.16
32039;BMP280;18549;42.286;22.688;2023-02-01T11:44:32;95853.47;;;9.38
32039;BMP280;18549;42.286;22.688;2023-02-01T11:47:19;95843.91;;;9.61
32039;BMP280;18549;42.286;22.688;2023-02-01T11:49:49;95838.63;;;9.81
32039;BMP280;18549;42.286;22.688;2023-02-01T11:52:27;95826.13;;;10.11
32039;BMP280;18549;42.286;22.688;2023-02-01T11:55:12;95819.09;;;10.45
32039;BMP280;18549;42.286;22.688;2023-02-01T11:57:51;95819.28;;;10.82
32039;BMP280;18549;42.286;22.688;2023-02-01T12:00:33;95820.53;;;11.01
32039;BMP280;18549;42.286;22.688;2023-02-01T12:03:26;95812.66;;;11.21
32039;BMP280;18549;42.286;22.688;2023-02-01T12:05:59;95808.63;;;11.32
32039;BMP280;18549;42.286;22.688;2023-02-01T12:11:33;95798.28;;;11.38
32039;BMP280;18549;42.286;22.688;2023-02-01T12:14:17;95798.28;;;11.26
32039;BMP280;18549;42.286;22.688;2023-02-01T12:17:00;95801.19;;;11.06
32039;BMP280;18549;42.286;22.688;2023-02-01T12:19:50;95806.91;;;10.94
32039;BMP280;18549;42.286;22.688;2023-02-01T12:22:34;95799.63;;;10.79
32039;BMP280;18549;42.286;22.688;2023-02-01T12:25:39;95795.16;;;10.58
32039;BMP280;18549;42.286;22.688;2023-02-01T12:28:25;95794.25;;;10.33
32039;BMP280;18549;42.286;22.688;2023-02-01T12:31:33;95793.03;;;10.26
32039;BMP280;18549;42.286;22.688;2023-02-01T12:34:25;95790.09;;;10.20
32039;BMP280;18549;42.286;22.688;2023-02-01T12:37:03;95787.75;;;9.90
32039;BMP280;18549;42.286;22.688;2023-02-01T12:39:39;95764.47;;;9.79
32039;BMP280;18549;42.286;22.688;2023-02-01T12:42:13;95784.06;;;9.41
32039;BMP280;18549;42.286;22.688;2023-02-01T12:44:47;95786.63;;;9.53
32039;BMP280;18549;42.286;22.688;2023-02-01T12:47:20;95776.88;;;9.36
32039;BMP280;18549;42.286;22.688;2023-02-01T12:49:55;95779.50;;;9.33
32039;BMP280;18549;42.286;22.688;2023-02-01T12:52:30;95787.72;;;9.20
32039;BMP280;18549;42.286;22.688;2023-02-01T12:55:07;95780.19;;;9.21
32039;BMP280;18549;42.286;22.688;2023-02-01T12:57:39;95784.81;;;9.27
32039;BMP280;18549;42.286;22.688;2023-02-01T13:00:16;95787.78;;;9.19
32039;BMP280;18549;42.286;22.688;2023-02-01T13:02:52;95797.50;;;9.21
32039;BMP280;18549;42.286;22.688;2023-02-01T13:05:23;95800.59;;;8.96
32039;BMP280;18549;42.286;22.688;2023-02-01T13:07:57;95794.41;;;8.89
32039;BMP280;18549;42.286;22.688;2023-02-01T13:10:33;95799.16;;;8.92
32039;BMP280;18549;42.286;22.688;2023-02-01T13:13:05;95790.28;;;9.03
32039;BMP280;18549;42.286;22.688;2023-02-01T13:15:39;95792.91;;;9.16
32039;BMP280;18549;42.286;22.688;2023-02-01T13:18:13;95788.16;;;9.26
32039;BMP280;18549;42.286;22.688;2023-02-01T13:20:50;95790.12;;;9.35
32039;BMP280;18549;42.286;22.688;2023-02-01T13:23:24;95796.28;;;9.28
32039;BMP280;18549;42.286;22.688;2023-02-01T13:25:54;95796.78;;;9.20
32039;BMP280;18549;42.286;22.688;2023-02-01T13:28:26;95795.69;;;9.10
32039;BMP280;18549;42.286;22.688;2023-02-01T13:31:16;95795.22;;;9.19
32039;BMP280;18549;42.286;22.688;2023-02-01T13:34:22;95793.81;;;9.28
32039;BMP280;18549;42.286;22.688;2023-02-01T13:37:05;95795.03;;;9.21
32039;BMP280;18549;42.286;22.688;2023-02-01T13:39:46;95792.56;;;9.21
32039;BMP280;18549;42.286;22.688;2023-02-01T13:42:20;95787.56;;;9.08
32039;BMP280;18549;42.286;22.688;2023-02-01T13:44:51;95785.63;;;9.13
32039;BMP280;18549;42.286;22.688;2023-02-01T13:47:28;95788.69;;;9.18
32039;BMP280;18549;42.286;22.688;2023-02-01T13:49:58;95778.53;;;8.93
32039;BMP280;18549;42.286;22.688;2023-02-01T13:52:32;95788.56;;;8.90
32039;BMP280;18549;42.286;22.688;2023-02-01T13:55:03;95792.88;;;8.87
32039;BMP280;18549;42.286;22.688;2023-02-01T13:57:49;95797.84;;;8.87
32039;BMP280;18549;42.286;22.688;2023-02-01T14:00:24;95793.00;;;8.99
32039;BMP280;18549;42.286;22.688;2023-02-01T14:03:14;95796.63;;;8.93
32039;BMP280;18549;42.286;22.688;2023-02-01T14:05:59;95796.69;;;8.92
32039;BMP280;18549;42.286;22.688;2023-02-01T14:08:40;95799.63;;;8.98
32039;BMP280;18549;42.286;22.688;2023-02-01T14:11:35;95793.59;;;8.88
32039;BMP280;18549;42.286;22.688;2023-02-01T14:23:30;95799.66;;;8.83
32039;BMP280;18549;42.286;22.688;2023-02-01T14:26:16;95799.78;;;8.66
32039;BMP280;18549;42.286;22.688;2023-02-01T14:28:57;95802.47;;;8.77
32039;BMP280;18549;42.286;22.688;2023-02-01T14:31:41;95798.97;;;8.81
32039;BMP280;18549;42.286;22.688;2023-02-01T14:34:16;95798.56;;;8.88
32039;BMP280;18549;42.286;22.688;2023-02-01T14:36:48;95795.44;;;8.85
32039;BMP280;18549;42.286;22.688;2023-02-01T14:39:32;95795.38;;;8.87
32039;BMP280;18549;42.286;22.688;2023-02-01T14:42:03;95801.41;;;8.96
32039;BMP280;18549;42.286;22.688;2023-02-01T14:44:36;95797.81;;;9.02
32039;BMP280;18549;42.286;22.688;2023-02-01T14:50:25;95791.72;;;9.07
32039;BMP280;18549;42.286;22.688;2023-02-01T14:53:17;95798.25;;;9.08
32039;BMP280;18549;42.286;22.688;2023-02-01T14:55:52;95793.16;;;9.11